sensor_id;sensor_type;location;lat;lon;timestamp;pressure;altitude;pressure_sealevel;temperature;humidity
25722;BME280;13578;53.450;15.496;2023-04-22T00:00:46;99784.63;;;8.55;88.19
25722;BME280;13578;53.450;15.496;2023-04-22T00:03:47;99778.63;;;8.38;88.48
25722;BME280;13578;53.450;15.496;2023-04-22T00:06:47;99782.75;;;8.33;89.26
25722;BME280;13578;53.450;15.496;2023-04-22T00:09:48;99773.66;;;8.32;89.48
25722;BME280;13578;53.450;15.496;2023-04-22T00:12:49;99778.13;;;8.33;89.33
25722;BME280;13578;53.450;15.496;2023-04-22T00:15:50;99774.91;;;8.28;89.56
25722;BME280;13578;53.450;15.496;2023-04-22T00:18:50;99773.16;;;8.27;90.15
25722;BME280;13578;53.450;15.496;2023-04-22T00:21:51;99758.13;;;8.21;89.74
25722;BME280;13578;53.450;15.496;2023-04-22T00:24:52;99770.56;;;8.25;89.68
25722;BME280;13578;53.450;15.496;2023-04-22T00:27:52;99772.41;;;8.14;90.39
25722;BME280;13578;53.450;15.496;2023-04-22T00:30:53;99778.25;;;8.09;90.45
25722;BME280;13578;53.450;15.496;2023-04-22T00:33:54;99787.09;;;8.13;90.41
25722;BME280;13578;53.450;15.496;2023-04-22T00:36:55;99778.84;;;7.90;91.94
25722;BME280;13578;53.450;15.496;2023-04-22T00:39:56;99759.94;;;7.75;91.56
25722;BME280;13578;53.450;15.496;2023-04-22T00:42:58;99774.38;;;7.77;91.81
25722;BME280;13578;53.450;15.496;2023-04-22T00:45:59;99762.69;;;7.75;91.28
25722;BME280;13578;53.450;15.496;2023-04-22T00:49:00;99760.44;;;7.81;90.67
25722;BME280;13578;53.450;15.496;2023-04-22T00:52:02;99750.25;;;7.71;90.73
25722;BME280;13578;53.450;15.496;2023-04-22T00:55:03;99750.50;;;7.68;91.00
25722;BME280;13578;53.450;15.496;2023-04-22T00:58:04;99752.97;;;7.71;90.00
25722;BME280;13578;53.450;15.496;2023-04-22T01:01:04;99751.75;;;7.75;90.36
25722;BME280;13578;53.450;15.496;2023-04-22T01:04:05;99756.31;;;7.63;90.65
25722;BME280;13578;53.450;15.496;2023-04-22T01:07:06;99737.06;;;7.54;90.44
25722;BME280;13578;53.450;15.496;2023-04-22T01:10:07;99753.19;;;7.57;90.63
25722;BME280;13578;53.450;15.496;2023-04-22T01:13:08;99740.16;;;7.49;90.55
25722;BME280;13578;53.450;15.496;2023-04-22T01:16:09;99750.59;;;7.55;90.66
25722;BME280;13578;53.450;15.496;2023-04-22T01:19:10;99755.19;;;7.55;91.68
25722;BME280;13578;53.450;15.496;2023-04-22T01:22:13;99757.66;;;7.46;91.79
25722;BME280;13578;53.450;15.496;2023-04-22T01:25:14;99755.50;;;7.39;92.02
25722;BME280;13578;53.450;15.496;2023-04-22T01:28:16;99753.16;;;7.34;91.80
25722;BME280;13578;53.450;15.496;2023-04-22T01:31:17;99748.56;;;7.10;93.16
25722;BME280;13578;53.450;15.496;2023-04-22T01:34:18;99746.88;;;7.21;92.38
25722;BME280;13578;53.450;15.496;2023-04-22T01:37:19;99747.13;;;7.18;92.20
25722;BME280;13578;53.450;15.496;2023-04-22T01:40:20;99757.09;;;7.30;92.48
25722;BME280;13578;53.450;15.496;2023-04-22T01:43:22;99739.94;;;7.28;92.61
25722;BME280;13578;53.450;15.496;2023-04-22T01:46:23;99735.25;;;7.30;92.84
25722;BME280;13578;53.450;15.496;2023-04-22T01:49:23;99735.25;;;7.30;92.08
25722;BME280;13578;53.450;15.496;2023-04-22T01:52:25;99736.44;;;7.14;92.56
25722;BME280;13578;53.450;15.496;2023-04-22T01:55:26;99748.38;;;7.25;93.30
25722;BME280;13578;53.450;15.496;2023-04-22T01:58:28;99740.03;;;7.15;93.72
25722;BME280;13578;53.450;15.496;2023-04-22T02:01:29;99741.13;;;7.12;93.68
25722;BME280;13578;53.450;15.496;2023-04-22T02:04:29;99753.91;;;7.12;94.27
25722;BME280;13578;53.450;15.496;2023-04-22T02:07:30;99725.63;;;7.13;93.37
25722;BME280;13578;53.450;15.496;2023-04-22T02:10:31;99730.84;;;7.16;92.48
25722;BME280;13578;53.450;15.496;2023-04-22T02:13:36;99737.88;;;7.07;93.39
25722;BME280;13578;53.450;15.496;2023-04-22T02:16:39;99733.66;;;7.03;93.32
25722;BME280;13578;53.450;15.496;2023-04-22T02:19:40;99730.41;;;6.98;93.53
25722;BME280;13578;53.450;15.496;2023-04-22T02:22:41;99734.47;;;6.92;94.10
25722;BME280;13578;53.450;15.496;2023-04-22T02:25:50;99723.63;;;6.79;95.17
25722;BME280;13578;53.450;15.496;2023-04-22T02:28:51;99727.00;;;6.83;94.50
25722;BME280;13578;53.450;15.496;2023-04-22T02:31:52;99710.28;;;6.88;94.38
25722;BME280;13578;53.450;15.496;2023-04-22T02:34:53;99705.03;;;6.84;94.10
25722;BME280;13578;53.450;15.496;2023-04-22T02:37:53;99705.63;;;6.77;94.43
25722;BME280;13578;53.450;15.496;2023-04-22T02:40:54;99712.53;;;6.70;94.92
25722;BME280;13578;53.450;15.496;2023-04-22T02:43:55;99710.66;;;6.70;95.32
25722;BME280;13578;53.450;15.496;2023-04-22T02:46:55;99710.66;;;6.70;95.58
25722;BME280;13578;53.450;15.496;2023-04-22T02:49:56;99709.19;;;6.66;95.85
25722;BME280;13578;53.450;15.496;2023-04-22T02:52:57;99711.59;;;6.58;96.39
25722;BME280;13578;53.450;15.496;2023-04-22T02:55:57;99716.41;;;6.54;96.51
25722;BME280;13578;53.450;15.496;2023-04-22T02:58:58;99708.91;;;6.45;97.20
25722;BME280;13578;53.450;15.496;2023-04-22T03:01:59;99717.97;;;6.45;97.51
25722;BME280;13578;53.450;15.496;2023-04-22T03:04:59;99714.25;;;6.46;97.65
25722;BME280;13578;53.450;15.496;2023-04-22T03:08:00;99703.06;;;6.38;97.26
25722;BME280;13578;53.450;15.496;2023-04-22T03:11:01;99704.44;;;6.44;97.45
25722;BME280;13578;53.450;15.496;2023-04-22T03:14:01;99709.97;;;6.31;98.34
25722;BME280;13578;53.450;15.496;2023-04-22T03:17:02;99721.28;;;6.25;99.33
25722;BME280;13578;53.450;15.496;2023-04-22T03:20:03;99703.31;;;6.22;98.92
25722;BME280;13578;53.450;15.496;2023-04-22T03:23:03;99697.31;;;6.30;98.66
25722;BME280;13578;53.450;15.496;2023-04-22T03:26:06;99698.75;;;6.23;99.40
25722;BME280;13578;53.450;15.496;2023-04-22T03:29:07;99706.16;;;6.20;99.72
25722;BME280;13578;53.450;15.496;2023-04-22T03:32:07;99700.84;;;6.19;99.73
25722;BME280;13578;53.450;15.496;2023-04-22T03:35:08;99689.28;;;6.15;99.32
25722;BME280;13578;53.450;15.496;2023-04-22T03:38:09;99693.00;;;6.14;99.73
25722;BME280;13578;53.450;15.496;2023-04-22T03:41:09;99688.72;;;6.10;100.00
25722;BME280;13578;53.450;15.496;2023-04-22T03:44:10;99680.56;;;6.10;100.00
25722;BME280;13578;53.450;15.496;2023-04-22T03:47:10;99698.75;;;6.23;99.93
25722;BME280;13578;53.450;15.496;2023-04-22T03:50:11;99693.84;;;6.15;100.00
25722;BME280;13578;53.450;15.496;2023-04-22T03:53:11;99694.94;;;6.12;100.00
25722;BME280;13578;53.450;15.496;2023-04-22T03:56:12;99698.66;;;6.11;100.00
25722;BME280;13578;53.450;15.496;2023-04-22T03:59:13;99700.19;;;6.15;100.00
25722;BME280;13578;53.450;15.496;2023-04-22T04:02:13;99689.75;;;6.09;100.00
25722;BME280;13578;53.450;15.496;2023-04-22T04:05:14;99702.97;;;6.27;100.00
25722;BME280;13578;53.450;15.496;2023-04-22T04:08:15;99689.19;;;6.41;100.00
25722;BME280;13578;53.450;15.496;2023-04-22T04:11:15;99694.94;;;6.49;100.00
25722;BME280;13578;53.450;15.496;2023-04-22T04:14:16;99688.44;;;6.39;100.00
25722;BME280;13578;53.450;15.496;2023-04-22T04:17:16;99697.78;;;6.48;100.00
25722;BME280;13578;53.450;15.496;2023-04-22T04:20:17;99701.22;;;6.63;100.00
25722;BME280;13578;53.450;15.496;2023-04-22T04:23:18;99699.41;;;6.50;100.00
25722;BME280;13578;53.450;15.496;2023-04-22T04:26:18;99701.56;;;6.58;100.00
25722;BME280;13578;53.450;15.496;2023-04-22T04:29:19;99703.72;;;6.66;100.00
25722;BME280;13578;53.450;15.496;2023-04-22T04:32:20;99706.91;;;6.84;100.00
25722;BME280;13578;53.450;15.496;2023-04-22T04:35:21;99704.38;;;7.05;100.00
25722;BME280;13578;53.450;15.496;2023-04-22T04:38:23;99710.66;;;7.19;100.00
25722;BME280;13578;53.450;15.496;2023-04-22T04:41:24;99704.38;;;7.29;100.00
25722;BME280;13578;53.450;15.496;2023-04-22T04:44:27;99707.88;;;7.43;100.00
25722;BME280;13578;53.450;15.496;2023-04-22T04:47:30;99688.41;;;7.47;100.00
25722;BME280;13578;53.450;15.496;2023-04-22T04:50:33;99693.38;;;7.65;100.00
25722;BME280;13578;53.450;15.496;2023-04-22T04:53:33;99687.44;;;7.83;99.94
25722;BME280;13578;53.450;15.496;2023-04-22T04:56:34;99681.47;;;7.89;98.47
25722;BME280;13578;53.450;15.496;2023-04-22T04:59:35;99694.88;;;8.03;98.15
25722;BME280;13578;53.450;15.496;2023-04-22T05:02:35;99682.09;;;8.15;97.16
25722;BME280;13578;53.450;15.496;2023-04-22T05:05:36;99675.69;;;8.37;96.02
25722;BME280;13578;53.450;15.496;2023-04-22T05:08:36;99679.22;;;8.51;95.49
25722;BME280;13578;53.450;15.496;2023-04-22T05:11:37;99673.44;;;8.65;94.05
25722;BME280;13578;53.450;15.496;2023-04-22T05:14:38;99679.84;;;8.76;93.53
25722;BME280;13578;53.450;15.496;2023-04-22T05:17:40;99677.09;;;8.87;93.98
25722;BME280;13578;53.450;15.496;2023-04-22T05:20:40;99684.31;;;8.88;94.81
25722;BME280;13578;53.450;15.496;2023-04-22T05:23:41;99685.53;;;8.95;93.92
25722;BME280;13578;53.450;15.496;2023-04-22T05:26:42;99680.53;;;9.00;93.73
25722;BME280;13578;53.450;15.496;2023-04-22T05:29:42;99684.69;;;9.16;92.71
25722;BME280;13578;53.450;15.496;2023-04-22T05:32:43;99692.97;;;9.26;94.07
25722;BME280;13578;53.450;15.496;2023-04-22T05:35:43;99690.69;;;9.31;94.36
25722;BME280;13578;53.450;15.496;2023-04-22T05:38:44;99680.94;;;9.38;92.48
25722;BME280;13578;53.450;15.496;2023-04-22T05:41:45;99666.53;;;9.36;91.63
25722;BME280;13578;53.450;15.496;2023-04-22T05:44:45;99672.31;;;9.43;91.61
25722;BME280;13578;53.450;15.496;2023-04-22T05:47:46;99686.41;;;9.59;94.04
25722;BME280;13578;53.450;15.496;2023-04-22T05:50:47;99669.09;;;9.59;92.34
25722;BME280;13578;53.450;15.496;2023-04-22T05:53:47;99658.38;;;9.77;90.61
25722;BME280;13578;53.450;15.496;2023-04-22T05:56:48;99666.97;;;9.93;91.56
25722;BME280;13578;53.450;15.496;2023-04-22T05:59:49;99681.28;;;9.97;94.66
25722;BME280;13578;53.450;15.496;2023-04-22T06:02:50;99679.03;;;10.12;92.03
25722;BME280;13578;53.450;15.496;2023-04-22T06:05:50;99672.69;;;10.21;90.88
25722;BME280;13578;53.450;15.496;2023-04-22T06:08:51;99674.09;;;10.37;92.62
25722;BME280;13578;53.450;15.496;2023-04-22T06:11:51;99669.19;;;10.50;91.88
25722;BME280;13578;53.450;15.496;2023-04-22T06:14:52;99638.00;;;10.51;87.90
25722;BME280;13578;53.450;15.496;2023-04-22T06:17:53;99650.88;;;10.60;89.99
25722;BME280;13578;53.450;15.496;2023-04-22T06:20:53;99659.44;;;10.67;91.31
25722;BME280;13578;53.450;15.496;2023-04-22T06:23:54;99668.53;;;10.87;90.33
25722;BME280;13578;53.450;15.496;2023-04-22T06:26:55;99666.25;;;10.92;90.82
25722;BME280;13578;53.450;15.496;2023-04-22T06:29:57;99658.00;;;11.02;91.80
25722;BME280;13578;53.450;15.496;2023-04-22T06:32:58;99661.59;;;11.22;90.40
25722;BME280;13578;53.450;15.496;2023-04-22T06:35:59;99663.63;;;11.30;91.38
25722;BME280;13578;53.450;15.496;2023-04-22T06:38:59;99639.03;;;11.28;90.43
25722;BME280;13578;53.450;15.496;2023-04-22T06:42:01;99644.22;;;11.51;90.22
25722;BME280;13578;53.450;15.496;2023-04-22T06:45:06;99664.13;;;11.73;91.47
25722;BME280;13578;53.450;15.496;2023-04-22T06:48:08;99665.09;;;11.82;91.78
25722;BME280;13578;53.450;15.496;2023-04-22T06:51:09;99668.53;;;11.94;91.74
25722;BME280;13578;53.450;15.496;2023-04-22T06:54:10;99666.50;;;12.05;92.35
25722;BME280;13578;53.450;15.496;2023-04-22T06:57:10;99659.88;;;12.26;91.15
25722;BME280;13578;53.450;15.496;2023-04-22T07:00:11;99668.47;;;12.41;92.65
25722;BME280;13578;53.450;15.496;2023-04-22T07:03:12;99645.75;;;12.39;90.89
25722;BME280;13578;53.450;15.496;2023-04-22T07:06:13;99649.56;;;12.56;90.95
25722;BME280;13578;53.450;15.496;2023-04-22T07:09:13;99647.53;;;12.76;90.33
25722;BME280;13578;53.450;15.496;2023-04-22T07:12:14;99663.53;;;12.91;93.10
25722;BME280;13578;53.450;15.496;2023-04-22T07:15:15;99641.63;;;13.07;87.79
25722;BME280;13578;53.450;15.496;2023-04-22T07:18:15;99632.47;;;13.25;90.53
25722;BME280;13578;53.450;15.496;2023-04-22T07:21:16;99649.25;;;13.49;90.10
25722;BME280;13578;53.450;15.496;2023-04-22T07:24:17;99655.44;;;13.52;90.68
25722;BME280;13578;53.450;15.496;2023-04-22T07:27:17;99642.31;;;13.72;86.70
25722;BME280;13578;53.450;15.496;2023-04-22T07:30:18;99627.78;;;13.88;87.22
25722;BME280;13578;53.450;15.496;2023-04-22T07:33:19;99633.50;;;13.94;87.14
25722;BME280;13578;53.450;15.496;2023-04-22T07:36:19;99634.28;;;14.13;86.10
25722;BME280;13578;53.450;15.496;2023-04-22T07:39:21;99629.84;;;14.28;84.85
25722;BME280;13578;53.450;15.496;2023-04-22T07:42:22;99635.53;;;14.27;87.32
25722;BME280;13578;53.450;15.496;2023-04-22T07:45:22;99621.09;;;14.41;84.78
25722;BME280;13578;53.450;15.496;2023-04-22T07:48:23;99627.06;;;14.71;85.09
25722;BME280;13578;53.450;15.496;2023-04-22T07:51:24;99624.97;;;14.65;85.65
25722;BME280;13578;53.450;15.496;2023-04-22T07:54:25;99616.75;;;14.90;82.59
25722;BME280;13578;53.450;15.496;2023-04-22T07:57:25;99617.25;;;14.77;83.35
25722;BME280;13578;53.450;15.496;2023-04-22T08:00:26;99618.84;;;15.04;84.04
25722;BME280;13578;53.450;15.496;2023-04-22T08:03:27;99627.81;;;15.23;84.31
25722;BME280;13578;53.450;15.496;2023-04-22T08:06:27;99618.63;;;15.47;84.26
25722;BME280;13578;53.450;15.496;2023-04-22T08:09:28;99620.69;;;15.62;83.90
25722;BME280;13578;53.450;15.496;2023-04-22T08:12:29;99604.91;;;15.79;81.98
25722;BME280;13578;53.450;15.496;2023-04-22T08:15:29;99613.38;;;15.94;80.54
25722;BME280;13578;53.450;15.496;2023-04-22T08:18:30;99595.84;;;16.10;76.83
25722;BME280;13578;53.450;15.496;2023-04-22T08:21:31;99609.66;;;16.18;80.78
25722;BME280;13578;53.450;15.496;2023-04-22T08:24:32;99574.06;;;16.15;74.67
25722;BME280;13578;53.450;15.496;2023-04-22T08:27:32;99597.47;;;16.35;78.55
25722;BME280;13578;53.450;15.496;2023-04-22T08:30:33;99570.41;;;16.46;73.28
25722;BME280;13578;53.450;15.496;2023-04-22T08:33:34;99567.56;;;16.54;70.82
25722;BME280;13578;53.450;15.496;2023-04-22T08:36:34;99560.06;;;16.40;70.74
25722;BME280;13578;53.450;15.496;2023-04-22T08:39:35;99563.97;;;16.54;71.71
25722;BME280;13578;53.450;15.496;2023-04-22T08:42:36;99559.47;;;16.52;70.09
25722;BME280;13578;53.450;15.496;2023-04-22T08:45:38;99571.28;;;16.70;70.55
25722;BME280;13578;53.450;15.496;2023-04-22T08:48:39;99555.56;;;16.93;68.67
25722;BME280;13578;53.450;15.496;2023-04-22T08:51:41;99557.03;;;17.04;70.45
25722;BME280;13578;53.450;15.496;2023-04-22T08:54:42;99528.56;;;17.10;66.55
25722;BME280;13578;53.450;15.496;2023-04-22T08:57:43;99548.38;;;17.22;67.69
25722;BME280;13578;53.450;15.496;2023-04-22T09:00:45;99525.63;;;17.27;64.14
25722;BME280;13578;53.450;15.496;2023-04-22T09:03:47;99539.78;;;17.32;64.93
25722;BME280;13578;53.450;15.496;2023-04-22T09:06:48;99543.72;;;17.53;64.52
25722;BME280;13578;53.450;15.496;2023-04-22T09:09:49;99541.44;;;17.56;64.65
25722;BME280;13578;53.450;15.496;2023-04-22T09:12:50;99530.16;;;17.73;63.34
25722;BME280;13578;53.450;15.496;2023-04-22T09:15:51;99514.94;;;17.84;61.81
25722;BME280;13578;53.450;15.496;2023-04-22T09:18:52;99518.97;;;17.81;61.00
25722;BME280;13578;53.450;15.496;2023-04-22T09:21:56;99506.50;;;17.92;60.32
25722;BME280;13578;53.450;15.496;2023-04-22T09:24:57;99522.88;;;18.02;62.43
25722;BME280;13578;53.450;15.496;2023-04-22T09:27:58;99508.13;;;18.16;59.72
25722;BME280;13578;53.450;15.496;2023-04-22T09:30:59;99513.94;;;18.21;60.97
25722;BME280;13578;53.450;15.496;2023-04-22T09:34:02;99551.53;;;18.39;65.38
25722;BME280;13578;53.450;15.496;2023-04-22T09:37:04;99497.28;;;18.43;58.79
25722;BME280;13578;53.450;15.496;2023-04-22T09:40:05;99479.53;;;18.37;56.59
25722;BME280;13578;53.450;15.496;2023-04-22T09:43:07;99514.63;;;18.45;61.44
25722;BME280;13578;53.450;15.496;2023-04-22T09:46:08;99496.53;;;18.49;58.83
25722;BME280;13578;53.450;15.496;2023-04-22T09:49:09;99502.59;;;18.38;60.03
25722;BME280;13578;53.450;15.496;2023-04-22T09:52:10;99453.81;;;18.50;55.10
25722;BME280;13578;53.450;15.496;2023-04-22T09:55:23;99494.00;;;18.33;58.69
25722;BME280;13578;53.450;15.496;2023-04-22T09:58:23;99538.72;;;18.38;66.90
25722;BME280;13578;53.450;15.496;2023-04-22T10:01:37;99485.69;;;18.54;58.09
25722;BME280;13578;53.450;15.496;2023-04-22T10:04:40;99495.41;;;18.44;60.32
25722;BME280;13578;53.450;15.496;2023-04-22T10:07:41;99492.88;;;18.49;59.12
25722;BME280;13578;53.450;15.496;2023-04-22T10:10:43;99457.09;;;18.61;55.34
25722;BME280;13578;53.450;15.496;2023-04-22T10:13:44;99483.81;;;18.40;60.55
25722;BME280;13578;53.450;15.496;2023-04-22T10:16:46;99496.78;;;18.54;61.71
25722;BME280;13578;53.450;15.496;2023-04-22T10:19:47;99480.91;;;18.70;58.11
25722;BME280;13578;53.450;15.496;2023-04-22T10:22:51;99480.78;;;19.00;58.09
25722;BME280;13578;53.450;15.496;2023-04-22T10:25:54;99449.31;;;18.99;54.74
25722;BME280;13578;53.450;15.496;2023-04-22T10:28:56;99436.78;;;18.60;53.75
25722;BME280;13578;53.450;15.496;2023-04-22T10:35:12;99439.09;;;18.78;54.36
25722;BME280;13578;53.450;15.496;2023-04-22T10:38:13;99444.50;;;18.86;54.13
25722;BME280;13578;53.450;15.496;2023-04-22T10:41:15;99442.38;;;18.88;53.92
25722;BME280;13578;53.450;15.496;2023-04-22T10:44:22;99459.03;;;19.10;55.78
25722;BME280;13578;53.450;15.496;2023-04-22T10:47:27;99437.81;;;19.02;53.36
25722;BME280;13578;53.450;15.496;2023-04-22T10:50:30;99436.91;;;18.73;54.44
25722;BME280;13578;53.450;15.496;2023-04-22T10:53:35;99379.25;;;18.82;49.08
25722;BME280;13578;53.450;15.496;2023-04-22T11:03:17;99439.69;;;18.73;55.99
25722;BME280;13578;53.450;15.496;2023-04-22T11:06:20;99456.16;;;18.75;57.00
25722;BME280;13578;53.450;15.496;2023-04-22T11:09:27;99401.22;;;18.99;52.05
25722;BME280;13578;53.450;15.496;2023-04-22T11:15:38;99374.84;;;19.23;49.22
25722;BME280;13578;53.450;15.496;2023-04-22T11:18:40;99434.50;;;19.20;54.88
25722;BME280;13578;53.450;15.496;2023-04-22T11:21:40;99400.25;;;19.13;53.19
25722;BME280;13578;53.450;15.496;2023-04-22T11:24:57;99428.50;;;19.17;55.63
25722;BME280;13578;53.450;15.496;2023-04-22T11:27:58;99424.97;;;19.01;57.48
25722;BME280;13578;53.450;15.496;2023-04-22T11:31:06;99430.06;;;18.98;59.53
25722;BME280;13578;53.450;15.496;2023-04-22T11:34:09;99434.28;;;19.15;59.39
25722;BME280;13578;53.450;15.496;2023-04-22T11:37:10;99432.41;;;19.29;59.08
25722;BME280;13578;53.450;15.496;2023-04-22T11:40:13;99396.78;;;19.46;53.33
25722;BME280;13578;53.450;15.496;2023-04-22T11:43:13;99369.88;;;19.60;51.12
25722;BME280;13578;53.450;15.496;2023-04-22T11:46:14;99353.13;;;19.53;50.48
25722;BME280;13578;53.450;15.496;2023-04-22T11:49:16;99379.50;;;19.64;53.00
25722;BME280;13578;53.450;15.496;2023-04-22T11:52:17;99349.09;;;19.56;49.57
25722;BME280;13578;53.450;15.496;2023-04-22T11:58:32;99340.38;;;19.66;49.87
25722;BME280;13578;53.450;15.496;2023-04-22T12:01:32;99328.84;;;19.82;48.57
25722;BME280;13578;53.450;15.496;2023-04-22T12:04:40;99311.63;;;19.45;46.90
25722;BME280;13578;53.450;15.496;2023-04-22T12:07:41;99316.34;;;19.51;47.47
25722;BME280;13578;53.450;15.496;2023-04-22T12:10:45;99331.03;;;19.39;48.82
25722;BME280;13578;53.450;15.496;2023-04-22T12:13:46;99375.00;;;19.57;53.79
25722;BME280;13578;53.450;15.496;2023-04-22T12:16:47;99347.88;;;19.72;51.37
25722;BME280;13578;53.450;15.496;2023-04-22T12:19:47;99310.44;;;19.81;47.59
25722;BME280;13578;53.450;15.496;2023-04-22T12:22:51;99351.13;;;19.82;50.48
25722;BME280;13578;53.450;15.496;2023-04-22T12:25:52;99373.22;;;19.84;53.66
25722;BME280;13578;53.450;15.496;2023-04-22T12:28:54;99299.72;;;19.78;47.55
25722;BME280;13578;53.450;15.496;2023-04-22T12:31:55;99341.78;;;19.97;50.86
25722;BME280;13578;53.450;15.496;2023-04-22T12:34:56;99340.06;;;19.96;49.83
25722;BME280;13578;53.450;15.496;2023-04-22T12:37:57;99321.84;;;20.13;49.70
25722;BME280;13578;53.450;15.496;2023-04-22T12:40:57;99307.50;;;20.03;48.22
25722;BME280;13578;53.450;15.496;2023-04-22T12:43:58;99327.63;;;20.05;50.14
25722;BME280;13578;53.450;15.496;2023-04-22T12:46:59;99253.91;;;19.94;44.26
25722;BME280;13578;53.450;15.496;2023-04-22T12:50:00;99274.69;;;19.92;46.08
25722;BME280;13578;53.450;15.496;2023-04-22T12:53:05;99362.13;;;20.04;54.66
25722;BME280;13578;53.450;15.496;2023-04-22T12:56:06;99319.06;;;20.13;49.94
25722;BME280;13578;53.450;15.496;2023-04-22T12:59:06;99295.09;;;20.26;48.97
25722;BME280;13578;53.450;15.496;2023-04-22T13:02:07;99307.53;;;20.37;48.82
25722;BME280;13578;53.450;15.496;2023-04-22T13:05:08;99304.94;;;20.22;49.48
25722;BME280;13578;53.450;15.496;2023-04-22T13:08:09;99279.88;;;20.08;47.15
25722;BME280;13578;53.450;15.496;2023-04-22T13:11:10;99278.34;;;19.99;47.47
25722;BME280;13578;53.450;15.496;2023-04-22T13:14:11;99270.63;;;19.94;47.67
25722;BME280;13578;53.450;15.496;2023-04-22T13:17:11;99289.72;;;20.04;48.37
25722;BME280;13578;53.450;15.496;2023-04-22T13:20:12;99265.31;;;19.99;46.95
25722;BME280;13578;53.450;15.496;2023-04-22T13:23:15;99237.88;;;19.90;45.92
25722;BME280;13578;53.450;15.496;2023-04-22T13:26:16;99310.50;;;20.08;52.04
25722;BME280;13578;53.450;15.496;2023-04-22T13:29:17;99299.38;;;20.15;51.86
25722;BME280;13578;53.450;15.496;2023-04-22T13:32:17;99303.41;;;20.12;51.95
25722;BME280;13578;53.450;15.496;2023-04-22T13:35:18;99224.81;;;20.10;45.79
25722;BME280;13578;53.450;15.496;2023-04-22T13:38:19;99214.94;;;20.14;43.87
25722;BME280;13578;53.450;15.496;2023-04-22T13:41:19;99225.22;;;20.07;46.12
25722;BME280;13578;53.450;15.496;2023-04-22T13:44:20;99241.94;;;20.14;47.79
25722;BME280;13578;53.450;15.496;2023-04-22T13:47:21;99240.47;;;20.11;47.31
25722;BME280;13578;53.450;15.496;2023-04-22T13:50:22;99223.94;;;20.30;45.32
25722;BME280;13578;53.450;15.496;2023-04-22T13:53:23;99209.56;;;20.20;43.99
25722;BME280;13578;53.450;15.496;2023-04-22T13:56:23;99215.38;;;20.18;44.90
25722;BME280;13578;53.450;15.496;2023-04-22T13:59:25;99238.72;;;20.24;46.57
25722;BME280;13578;53.450;15.496;2023-04-22T14:02:25;99277.31;;;20.20;49.88
25722;BME280;13578;53.450;15.496;2023-04-22T14:05:26;99252.22;;;20.20;48.14
25722;BME280;13578;53.450;15.496;2023-04-22T14:08:27;99247.50;;;20.27;48.00
25722;BME280;13578;53.450;15.496;2023-04-22T14:11:27;99225.66;;;20.31;46.51
25722;BME280;13578;53.450;15.496;2023-04-22T14:14:28;99234.44;;;20.21;48.15
25722;BME280;13578;53.450;15.496;2023-04-22T14:17:29;99233.78;;;20.12;47.72
25722;BME280;13578;53.450;15.496;2023-04-22T14:20:29;99233.16;;;20.10;48.20
25722;BME280;13578;53.450;15.496;2023-04-22T14:23:31;99222.88;;;19.84;48.07
25722;BME280;13578;53.450;15.496;2023-04-22T14:26:32;99180.03;;;19.92;45.60
25722;BME280;13578;53.450;15.496;2023-04-22T14:29:32;99224.38;;;20.00;47.78
25722;BME280;13578;53.450;15.496;2023-04-22T14:32:35;99235.50;;;20.00;50.88
25722;BME280;13578;53.450;15.496;2023-04-22T14:35:36;99195.03;;;20.04;46.55
25722;BME280;13578;53.450;15.496;2023-04-22T14:38:37;99205.75;;;19.94;47.89
25722;BME280;13578;53.450;15.496;2023-04-22T14:41:38;99215.59;;;19.90;49.89
25722;BME280;13578;53.450;15.496;2023-04-22T14:44:38;99188.81;;;20.02;45.95
25722;BME280;13578;53.450;15.496;2023-04-22T14:47:39;99206.38;;;20.09;48.83
25722;BME280;13578;53.450;15.496;2023-04-22T14:50:41;99204.25;;;20.05;48.46
25722;BME280;13578;53.450;15.496;2023-04-22T14:53:41;99157.13;;;20.03;43.96
25722;BME280;13578;53.450;15.496;2023-04-22T14:56:43;99146.19;;;19.88;43.23
25722;BME280;13578;53.450;15.496;2023-04-22T14:59:43;99152.38;;;19.83;43.54
25722;BME280;13578;53.450;15.496;2023-04-22T15:02:44;99138.91;;;19.80;43.71
25722;BME280;13578;53.450;15.496;2023-04-22T15:05:44;99204.00;;;19.79;48.79
25722;BME280;13578;53.450;15.496;2023-04-22T15:08:48;99191.34;;;19.83;47.46
25722;BME280;13578;53.450;15.496;2023-04-22T15:11:50;99165.69;;;19.81;46.15
25722;BME280;13578;53.450;15.496;2023-04-22T15:14:53;99138.25;;;19.78;43.92
25722;BME280;13578;53.450;15.496;2023-04-22T15:17:54;99131.41;;;19.67;42.94
25722;BME280;13578;53.450;15.496;2023-04-22T15:20:54;99161.81;;;19.69;45.54
25722;BME280;13578;53.450;15.496;2023-04-22T15:23:55;99152.38;;;19.70;46.05
25722;BME280;13578;53.450;15.496;2023-04-22T15:26:56;99185.13;;;19.68;48.36
25722;BME280;13578;53.450;15.496;2023-04-22T15:29:57;99156.03;;;19.71;46.08
25722;BME280;13578;53.450;15.496;2023-04-22T15:32:58;99209.34;;;19.67;50.32
25722;BME280;13578;53.450;15.496;2023-04-22T15:35:58;99166.94;;;19.59;46.99
25722;BME280;13578;53.450;15.496;2023-04-22T15:38:59;99161.78;;;19.56;46.33
25722;BME280;13578;53.450;15.496;2023-04-22T15:42:00;99181.91;;;19.64;48.08
25722;BME280;13578;53.450;15.496;2023-04-22T15:45:01;99177.22;;;19.65;48.67
25722;BME280;13578;53.450;15.496;2023-04-22T15:48:01;99150.47;;;19.64;46.27
25722;BME280;13578;53.450;15.496;2023-04-22T15:51:02;99166.94;;;19.59;46.70
25722;BME280;13578;53.450;15.496;2023-04-22T15:54:03;99160.50;;;19.58;46.81
25722;BME280;13578;53.450;15.496;2023-04-22T15:57:03;99192.59;;;19.41;50.46
25722;BME280;13578;53.450;15.496;2023-04-22T16:00:09;99160.25;;;19.33;47.97
25722;BME280;13578;53.450;15.496;2023-04-22T16:03:11;99180.59;;;19.33;49.67
25722;BME280;13578;53.450;15.496;2023-04-22T16:06:11;99156.84;;;19.31;47.58